createdAt,value
2023-04-20T00:00:20.300Z,0.00
2023-04-20T00:01:20.268Z,0.00
2023-04-20T00:02:20.361Z,0.00
2023-04-20T00:03:20.436Z,0.00
2023-04-20T00:04:20.263Z,0.00
2023-04-20T00:05:20.302Z,0.00
2023-04-20T00:06:20.221Z,0.00
2023-04-20T00:07:20.214Z,0.00
2023-04-20T00:08:20.209Z,0.00
2023-04-20T00:09:20.202Z,0.00
2023-04-20T00:10:20.172Z,0.00
2023-04-20T00:11:20.162Z,0.00
2023-04-20T00:12:20.157Z,0.00
2023-04-20T00:13:20.146Z,0.00
2023-04-20T00:14:20.177Z,0.00
2023-04-20T00:15:20.158Z,0.00
2023-04-20T00:16:20.321Z,0.00
2023-04-20T00:17:20.110Z,0.00
2023-04-20T00:18:20.082Z,0.00
2023-04-20T00:19:20.086Z,0.00
2023-04-20T00:20:20.059Z,0.00
2023-04-20T00:21:20.058Z,0.00
2023-04-20T00:22:20.044Z,0.00
2023-04-20T00:23:20.029Z,0.00
2023-04-20T00:24:20.045Z,0.00
2023-04-20T00:25:20.014Z,0.00
2023-04-20T00:26:20.001Z,0.00
2023-04-20T00:27:19.991Z,0.00
2023-04-20T00:28:20.742Z,0.00
2023-04-20T00:29:19.973Z,0.00
2023-04-20T00:30:19.955Z,0.00
2023-04-20T00:31:20.049Z,0.00
2023-04-20T00:32:19.986Z,0.00
2023-04-20T00:33:19.909Z,0.00
2023-04-20T00:34:19.917Z,0.00
2023-04-20T00:35:19.911Z,0.00
2023-04-20T00:36:19.908Z,0.00
2023-04-20T00:37:19.879Z,0.00
2023-04-20T00:38:19.857Z,0.00
2023-04-20T00:39:19.864Z,0.00
2023-04-20T00:40:19.862Z,0.00
2023-04-20T00:41:19.826Z,0.00
2023-04-20T00:42:19.827Z,0.00
2023-04-20T00:43:19.803Z,0.00
2023-04-20T00:44:19.784Z,0.00
2023-04-20T00:45:19.798Z,0.00
2023-04-20T00:46:19.786Z,0.00
2023-04-20T00:47:19.826Z,0.00
2023-04-20T00:48:19.752Z,0.00
2023-04-20T00:49:19.825Z,0.00
2023-04-20T00:50:19.878Z,0.00
2023-04-20T00:51:19.716Z,0.00
2023-04-20T00:52:19.705Z,0.00
2023-04-20T00:53:19.697Z,0.00
2023-04-20T00:54:19.678Z,0.00
2023-04-20T00:55:19.685Z,0.00
2023-04-20T00:56:19.690Z,0.00
2023-04-20T00:57:19.637Z,0.00
2023-04-20T00:58:19.632Z,0.00
2023-04-20T00:59:19.655Z,0.00
2023-04-20T01:00:19.625Z,0.00
2023-04-20T01:01:19.661Z,0.00
2023-04-20T01:02:19.615Z,0.00
2023-04-20T01:03:19.782Z,0.00
2023-04-20T01:04:19.719Z,0.00
2023-04-20T01:05:19.579Z,0.00
2023-04-20T01:06:19.548Z,0.00
2023-04-20T01:07:19.534Z,0.00
2023-04-20T01:08:19.517Z,0.00
2023-04-20T01:09:19.797Z,0.00
2023-04-20T01:10:19.503Z,0.00
2023-04-20T01:11:19.493Z,0.00
2023-04-20T01:12:19.501Z,0.00
2023-04-20T01:13:19.481Z,0.00
2023-04-20T01:14:19.453Z,0.00
2023-04-20T01:15:19.465Z,0.00
2023-04-20T01:16:19.461Z,0.00
2023-04-20T01:17:19.457Z,0.00
2023-04-20T01:18:19.416Z,0.00
2023-04-20T01:19:19.528Z,0.00
2023-04-20T01:20:19.384Z,0.00
2023-04-20T01:21:19.402Z,0.00
2023-04-20T01:22:19.370Z,0.00
2023-04-20T01:23:19.419Z,0.00
2023-04-20T01:24:19.407Z,0.00
2023-04-20T01:25:19.337Z,0.00
2023-04-20T01:26:19.320Z,0.00
2023-04-20T01:27:19.312Z,0.00
2023-04-20T01:28:19.300Z,0.00
2023-04-20T01:29:19.491Z,0.00
2023-04-20T01:30:19.328Z,0.00
2023-04-20T01:31:19.284Z,0.00
2023-04-20T01:32:19.255Z,0.00
2023-04-20T01:33:19.259Z,0.00
2023-04-20T01:34:19.251Z,0.00
2023-04-20T01:35:19.416Z,0.00
2023-04-20T01:36:19.221Z,0.00
2023-04-20T01:37:19.254Z,0.00
2023-04-20T01:38:19.207Z,0.00
2023-04-20T01:39:19.421Z,0.00
2023-04-20T01:40:19.212Z,0.00
2023-04-20T01:41:19.165Z,0.00
2023-04-20T01:42:19.169Z,0.00
2023-04-20T01:43:19.134Z,0.00
2023-04-20T01:44:19.128Z,0.00
2023-04-20T01:45:19.120Z,0.00
2023-04-20T01:46:19.173Z,0.00
2023-04-20T01:47:19.752Z,0.00
2023-04-20T01:48:19.083Z,0.00
2023-04-20T01:49:19.544Z,0.00
2023-04-20T01:50:19.068Z,0.00
2023-04-20T01:51:19.078Z,0.00
2023-04-20T01:52:19.055Z,0.00
2023-04-20T01:53:19.027Z,0.00
2023-04-20T01:54:19.020Z,0.00
2023-04-20T01:55:20.129Z,0.00
2023-04-20T01:56:19.011Z,0.00
2023-04-20T01:57:18.991Z,0.00
2023-04-20T01:58:18.972Z,0.00
2023-04-20T01:59:19.246Z,0.00
2023-04-20T02:00:18.973Z,0.00
2023-04-20T02:01:19.093Z,0.00
2023-04-20T02:02:19.016Z,0.00
2023-04-20T02:03:19.149Z,0.00
2023-04-20T02:04:18.928Z,0.00
2023-04-20T02:05:18.899Z,0.00
2023-04-20T02:06:19.147Z,0.00
2023-04-20T02:07:18.910Z,0.00
2023-04-20T02:08:18.868Z,0.00
2023-04-20T02:09:19.040Z,0.00
2023-04-20T02:10:18.853Z,0.00
2023-04-20T02:11:18.826Z,0.00
2023-04-20T02:12:18.833Z,0.00
2023-04-20T02:13:18.818Z,0.00
2023-04-20T02:14:18.796Z,0.00
2023-04-20T02:15:18.780Z,0.00
2023-04-20T02:16:18.773Z,0.00
2023-04-20T02:17:18.815Z,0.00
2023-04-20T02:18:18.748Z,0.00
2023-04-20T02:19:18.866Z,0.00
2023-04-20T02:20:18.735Z,0.00
2023-04-20T02:21:18.734Z,0.00
2023-04-20T02:22:18.720Z,0.00
2023-04-20T02:23:18.721Z,0.00
2023-04-20T02:24:18.692Z,0.00
2023-04-20T02:25:18.687Z,0.00
2023-04-20T02:26:18.664Z,0.00
2023-04-20T02:27:18.670Z,0.00
2023-04-20T02:28:18.634Z,0.00
2023-04-20T02:29:18.820Z,0.00
2023-04-20T02:30:18.620Z,0.00
2023-04-20T02:31:18.657Z,0.00
2023-04-20T02:32:18.732Z,0.00
2023-04-20T02:33:18.597Z,0.00
2023-04-20T02:34:18.577Z,0.00
2023-04-20T02:35:18.586Z,0.00
2023-04-20T02:36:18.592Z,0.00
2023-04-20T02:37:18.569Z,0.00
2023-04-20T02:38:18.541Z,0.00
2023-04-20T02:39:18.841Z,0.00
2023-04-20T02:40:18.605Z,0.00
2023-04-20T02:41:18.509Z,0.00
2023-04-20T02:42:18.510Z,0.00
2023-04-20T02:43:18.489Z,0.00
2023-04-20T02:44:18.468Z,0.00
2023-04-20T02:45:18.455Z,0.00
2023-04-20T02:46:18.499Z,0.00
2023-04-20T02:47:18.458Z,0.00
2023-04-20T02:48:18.416Z,0.00
2023-04-20T02:49:18.717Z,0.00
2023-04-20T02:50:18.397Z,0.00
2023-04-20T02:51:18.388Z,0.00
2023-04-20T02:52:18.398Z,0.00
2023-04-20T02:53:18.362Z,0.00
2023-04-20T02:54:18.374Z,0.00
2023-04-20T02:55:18.365Z,0.00
2023-04-20T02:56:18.540Z,0.00
2023-04-20T02:57:18.338Z,0.00
2023-04-20T02:58:18.392Z,0.00
2023-04-20T02:59:18.479Z,0.00
2023-04-20T03:00:18.288Z,0.00
2023-04-20T03:01:18.272Z,0.00
2023-04-20T03:02:18.457Z,0.00
2023-04-20T03:03:18.390Z,0.00
2023-04-20T03:04:18.381Z,0.00
2023-04-20T03:05:18.226Z,0.00
2023-04-20T03:06:18.220Z,0.00
2023-04-20T03:07:18.222Z,0.00
2023-04-20T03:08:18.291Z,0.00
2023-04-20T03:09:18.448Z,0.00
2023-04-20T03:10:18.175Z,0.00
2023-04-20T03:11:18.188Z,0.00
2023-04-20T03:12:18.159Z,0.00
2023-04-20T03:13:18.140Z,0.00
2023-04-20T03:14:18.149Z,0.00
2023-04-20T03:15:18.118Z,0.00
2023-04-20T03:16:18.156Z,0.00
2023-04-20T03:17:18.128Z,0.00
2023-04-20T03:18:18.105Z,0.00
2023-04-20T03:19:18.341Z,0.00
2023-04-20T03:20:18.184Z,0.00
2023-04-20T03:21:18.068Z,0.00
2023-04-20T03:22:18.333Z,0.00
2023-04-20T03:23:18.044Z,0.00
2023-04-20T03:24:18.045Z,0.00
2023-04-20T03:25:18.043Z,0.00
2023-04-20T03:26:17.996Z,0.00
2023-04-20T03:27:18.006Z,0.00
2023-04-20T03:28:17.982Z,0.00
2023-04-20T03:29:18.428Z,0.00
2023-04-20T03:30:17.947Z,0.00
2023-04-20T03:31:18.095Z,4.00
2023-04-20T03:32:17.947Z,0.00
2023-04-20T03:33:17.916Z,4.00
2023-04-20T03:34:17.913Z,0.00
2023-04-20T03:35:17.902Z,4.00
2023-04-20T03:36:17.907Z,0.00
2023-04-20T03:37:17.872Z,4.00
2023-04-20T03:38:17.870Z,4.00
2023-04-20T03:39:18.191Z,4.00
2023-04-20T03:40:17.844Z,4.00
2023-04-20T03:41:17.834Z,8.00
2023-04-20T03:42:17.874Z,4.00
2023-04-20T03:43:17.828Z,4.00
2023-04-20T03:44:17.789Z,12.00
2023-04-20T03:45:17.778Z,12.00
2023-04-20T03:46:17.955Z,12.00
2023-04-20T03:47:17.920Z,16.00
2023-04-20T03:48:17.814Z,16.00
2023-04-20T03:49:18.043Z,20.00
2023-04-20T03:50:17.753Z,28.00
2023-04-20T03:51:17.793Z,20.00
2023-04-20T03:52:17.726Z,20.00
2023-04-20T03:53:17.860Z,24.00
2023-04-20T03:54:17.678Z,24.00
2023-04-20T03:55:17.685Z,24.00
2023-04-20T03:56:17.698Z,24.00
2023-04-20T03:57:17.676Z,40.00
2023-04-20T03:58:17.632Z,60.00
2023-04-20T03:59:17.984Z,44.00
2023-04-20T04:00:17.632Z,40.00
2023-04-20T04:01:17.618Z,52.00
2023-04-20T04:02:17.771Z,60.00
2023-04-20T04:03:17.847Z,68.00
2023-04-20T04:04:18.068Z,76.00
2023-04-20T04:05:17.680Z,72.00
2023-04-20T04:06:17.584Z,80.00
2023-04-20T04:07:17.540Z,104.00
2023-04-20T04:08:17.531Z,128.00
2023-04-20T04:09:17.738Z,152.00
2023-04-20T04:10:17.529Z,128.00
2023-04-20T04:11:17.525Z,108.00
2023-04-20T04:12:17.484Z,136.00
2023-04-20T04:13:17.468Z,180.00
2023-04-20T04:14:17.465Z,196.00
2023-04-20T04:15:17.471Z,188.00
2023-04-20T04:16:17.459Z,172.00
2023-04-20T04:17:17.509Z,224.00
2023-04-20T04:18:17.418Z,212.00
2023-04-20T04:19:17.563Z,176.00
2023-04-20T04:20:17.411Z,176.00
2023-04-20T04:21:17.398Z,184.00
2023-04-20T04:22:17.516Z,144.00
2023-04-20T04:23:17.359Z,152.00
2023-04-20T04:24:17.374Z,184.00
2023-04-20T04:25:17.355Z,212.00
2023-04-20T04:26:17.343Z,180.00
2023-04-20T04:27:17.321Z,176.00
2023-04-20T04:28:17.310Z,188.00
2023-04-20T04:29:17.550Z,232.00
2023-04-20T04:30:17.369Z,228.00
2023-04-20T04:31:17.341Z,204.00
2023-04-20T04:32:17.265Z,208.00
2023-04-20T04:33:17.257Z,204.00
2023-04-20T04:34:17.351Z,184.00
2023-04-20T04:35:17.245Z,204.00
2023-04-20T04:36:17.225Z,276.00
2023-04-20T04:37:17.207Z,280.00
2023-04-20T04:38:17.203Z,388.00
2023-04-20T04:39:17.548Z,352.00
2023-04-20T04:40:17.197Z,276.00
2023-04-20T04:41:17.164Z,252.00
2023-04-20T04:42:17.155Z,276.00
2023-04-20T04:43:17.138Z,276.00
2023-04-20T04:44:17.150Z,220.00
2023-04-20T04:45:17.116Z,228.00
2023-04-20T04:46:17.180Z,276.00
2023-04-20T04:47:17.151Z,392.00
2023-04-20T04:48:17.124Z,360.00
2023-04-20T04:49:17.249Z,304.00
2023-04-20T04:50:17.067Z,264.00
2023-04-20T04:51:17.068Z,280.00
2023-04-20T04:52:26.338Z,288.00
2023-04-20T04:53:24.081Z,340.00
2023-04-20T04:54:17.027Z,340.00
2023-04-20T04:55:17.007Z,364.00
2023-04-20T04:56:17.101Z,412.00
2023-04-20T04:57:17.024Z,408.00
2023-04-20T04:58:17.002Z,476.00
2023-04-20T04:59:17.288Z,560.00
2023-04-20T05:00:16.949Z,716.00
2023-04-20T05:01:16.994Z,712.00
2023-04-20T05:02:17.187Z,716.00
2023-04-20T05:03:17.108Z,796.00
2023-04-20T05:04:16.968Z,972.00
2023-04-20T05:05:16.915Z,1016.00
2023-04-20T05:06:16.887Z,892.00
2023-04-20T05:07:16.874Z,760.00
2023-04-20T05:08:16.877Z,784.00
2023-04-20T05:09:17.181Z,832.00
2023-04-20T05:10:16.876Z,888.00
2023-04-20T05:11:16.826Z,932.00
2023-04-20T05:12:16.835Z,1236.00
2023-04-20T05:13:16.821Z,1652.00
2023-04-20T05:14:17.342Z,1500.00
2023-04-20T05:15:16.780Z,1448.00
2023-04-20T05:16:16.830Z,1240.00
2023-04-20T05:17:16.757Z,1092.00
2023-04-20T05:18:16.895Z,888.00
2023-04-20T05:19:16.978Z,824.00
2023-04-20T05:20:17.358Z,852.00
2023-04-20T05:21:16.714Z,1276.00
2023-04-20T05:22:16.880Z,1736.00
2023-04-20T05:23:16.726Z,1804.00
2023-04-20T05:24:16.689Z,1644.00
2023-04-20T05:25:16.769Z,1156.00
2023-04-20T05:26:16.818Z,1108.00
2023-04-20T05:27:17.334Z,1160.00
2023-04-20T05:28:16.634Z,1264.00
2023-04-20T05:29:16.928Z,1664.00
2023-04-20T05:30:21.239Z,1884.00
2023-04-20T05:31:17.629Z,1708.00
2023-04-20T05:32:16.592Z,1780.00
2023-04-20T05:33:16.578Z,1668.00
2023-04-20T05:34:16.683Z,1616.00
2023-04-20T05:35:16.606Z,1884.00
2023-04-20T05:36:16.551Z,2440.00
2023-04-20T05:37:16.544Z,2920.00
2023-04-20T05:38:16.534Z,3084.00
2023-04-20T05:39:16.913Z,3276.00
2023-04-20T05:40:16.532Z,2800.00
2023-04-20T05:41:16.503Z,2044.00
2023-04-20T05:42:16.493Z,1936.00
2023-04-20T05:43:16.471Z,2716.00
2023-04-20T05:44:16.468Z,2800.00
2023-04-20T05:45:16.467Z,2208.00
2023-04-20T05:46:16.623Z,1936.00
2023-04-20T05:47:16.428Z,2796.00
2023-04-20T05:48:16.416Z,3188.00
2023-04-20T05:49:16.569Z,2676.00
2023-04-20T05:50:16.412Z,2152.00
2023-04-20T05:51:16.447Z,2056.00
2023-04-20T05:52:16.376Z,2520.00
2023-04-20T05:53:17.365Z,3424.00
2023-04-20T05:54:16.379Z,3644.00
2023-04-20T05:55:18.354Z,3220.00
2023-04-20T05:56:16.343Z,2928.00
2023-04-20T05:57:16.342Z,3104.00
2023-04-20T05:58:16.349Z,3224.00
2023-04-20T05:59:16.520Z,3368.00
2023-04-20T06:00:16.306Z,3736.00
2023-04-20T06:01:16.291Z,4032.00
2023-04-20T06:02:16.324Z,4304.00
2023-04-20T06:03:16.383Z,4452.00
2023-04-20T06:04:16.441Z,4768.00
2023-04-20T06:05:16.299Z,5132.00
2023-04-20T06:06:16.797Z,5120.00
2023-04-20T06:07:16.244Z,4980.00
2023-04-20T06:08:16.218Z,4736.00
2023-04-20T06:09:16.503Z,4464.00
2023-04-20T06:10:16.873Z,4512.00
2023-04-20T06:11:16.166Z,4656.00
2023-04-20T06:12:16.157Z,4756.00
2023-04-20T06:13:16.148Z,4836.00
2023-04-20T06:14:16.133Z,5004.00
2023-04-20T06:15:16.191Z,5016.00
2023-04-20T06:16:16.173Z,4964.00
2023-04-20T06:17:16.103Z,4920.00
2023-04-20T06:18:16.093Z,4748.00
2023-04-20T06:19:16.280Z,4588.00
2023-04-20T06:20:16.105Z,4560.00
2023-04-20T06:21:16.067Z,4628.00
2023-04-20T06:22:16.053Z,4600.00
2023-04-20T06:23:16.057Z,4556.00
2023-04-20T06:24:16.027Z,4568.00
2023-04-20T06:25:16.175Z,4564.00
2023-04-20T06:26:16.019Z,4536.00
2023-04-20T06:27:16.000Z,4556.00
2023-04-20T06:28:15.982Z,4816.00
2023-04-20T06:29:17.131Z,4872.00
2023-04-20T06:30:15.980Z,4872.00
2023-04-20T06:31:16.035Z,4908.00
2023-04-20T06:32:15.937Z,4952.00
2023-04-20T06:33:15.925Z,4876.00
2023-04-20T06:34:15.912Z,4716.00
2023-04-20T06:35:15.914Z,4432.00
2023-04-20T06:36:15.894Z,4264.00
2023-04-20T06:37:15.876Z,4656.00
2023-04-20T06:38:15.864Z,4828.00
2023-04-20T06:39:16.249Z,4748.00
2023-04-20T06:40:16.318Z,4896.00
2023-04-20T06:41:15.834Z,5744.00
2023-04-20T06:42:15.821Z,6064.00
2023-04-20T06:43:16.389Z,6392.00
2023-04-20T06:44:15.799Z,6744.00
2023-04-20T06:45:15.790Z,7236.00
2023-04-20T06:46:15.827Z,7372.00
2023-04-20T06:47:15.761Z,7480.00
2023-04-20T06:48:30.633Z,7812.00
2023-04-20T06:49:17.018Z,8684.00
2023-04-20T06:50:15.750Z,9344.00
2023-04-20T06:51:15.732Z,9676.00
2023-04-20T06:52:15.719Z,10160.00
2023-04-20T06:53:15.696Z,10548.00
2023-04-20T06:54:15.694Z,10776.00
2023-04-20T06:55:15.718Z,10928.00
2023-04-20T06:56:15.662Z,11504.00
2023-04-20T06:57:15.689Z,12032.00
2023-04-20T06:58:15.642Z,12812.00
2023-04-20T06:59:15.848Z,13140.00
2023-04-20T07:00:15.619Z,14348.00
2023-04-20T07:01:15.703Z,14756.00
2023-04-20T07:02:16.383Z,15604.00
2023-04-20T07:03:15.876Z,20512.00
2023-04-20T07:04:15.685Z,22624.00
2023-04-20T07:05:15.642Z,18400.00
2023-04-20T07:06:15.546Z,16640.00
2023-04-20T07:07:15.627Z,18208.00
2023-04-20T07:08:15.553Z,20576.00
2023-04-20T07:09:15.702Z,13940.00
2023-04-20T07:10:15.507Z,15684.00
2023-04-20T07:11:15.522Z,12736.00
2023-04-20T07:12:15.500Z,15704.00
2023-04-20T07:13:15.484Z,13984.00
2023-04-20T07:14:15.494Z,16928.00
2023-04-20T07:15:15.462Z,12832.00
2023-04-20T07:16:15.507Z,25152.00
2023-04-20T07:17:15.451Z,16224.00
2023-04-20T07:18:15.424Z,18336.00
2023-04-20T07:19:15.538Z,14872.00
2023-04-20T07:20:15.417Z,13740.00
2023-04-20T07:21:15.441Z,10428.00
2023-04-20T07:22:15.391Z,10220.00
2023-04-20T07:23:15.366Z,13056.00
2023-04-20T07:24:15.368Z,13208.00
2023-04-20T07:25:15.354Z,15572.00
2023-04-20T07:26:15.338Z,15836.00
2023-04-20T07:27:15.338Z,13448.00
2023-04-20T07:28:15.304Z,10704.00
2023-04-20T07:29:15.418Z,9708.00
2023-04-20T07:30:15.297Z,11084.00
2023-04-20T07:31:15.276Z,14476.00
2023-04-20T07:32:15.346Z,17472.00
2023-04-20T07:33:15.327Z,14528.00
2023-04-20T07:34:15.327Z,12416.00
2023-04-20T07:35:15.228Z,11316.00
2023-04-20T07:36:15.236Z,10636.00
2023-04-20T07:37:15.210Z,15140.00
2023-04-20T07:38:15.195Z,12256.00
2023-04-20T07:39:15.213Z,11736.00
2023-04-20T07:40:15.879Z,11324.00
2023-04-20T07:41:15.166Z,10856.00
2023-04-20T07:42:15.151Z,12464.00
2023-04-20T07:43:15.170Z,13084.00
2023-04-20T07:44:15.178Z,16992.00
2023-04-20T07:45:15.134Z,18016.00
2023-04-20T07:46:15.223Z,17856.00
2023-04-20T07:47:15.105Z,19360.00
2023-04-20T07:48:15.093Z,16928.00
2023-04-20T07:49:15.116Z,15156.00
2023-04-20T07:50:15.091Z,13344.00
2023-04-20T07:51:15.058Z,11724.00
2023-04-20T07:52:17.329Z,11188.00
2023-04-20T07:53:15.035Z,11732.00
2023-04-20T07:54:15.036Z,10776.00
2023-04-20T07:55:15.126Z,9860.00
2023-04-20T07:56:14.998Z,10320.00
2023-04-20T07:57:15.917Z,9520.00
2023-04-20T07:58:14.996Z,8260.00
2023-04-20T07:59:15.354Z,7000.00
2023-04-20T08:00:14.977Z,7064.00
2023-04-20T08:01:14.958Z,9480.00
2023-04-20T08:02:15.027Z,12344.00
2023-04-20T08:03:15.237Z,12168.00
2023-04-20T08:04:15.392Z,10964.00
2023-04-20T08:05:15.162Z,8848.00
2023-04-20T08:06:15.848Z,7332.00
2023-04-20T08:07:15.401Z,6540.00
2023-04-20T08:08:14.904Z,6664.00
2023-04-20T08:09:14.867Z,7856.00
2023-04-20T08:10:14.872Z,10036.00
2023-04-20T08:11:14.833Z,14424.00
2023-04-20T08:12:14.824Z,20224.00
2023-04-20T08:13:14.828Z,30336.00
2023-04-20T08:14:14.843Z,35392.00
2023-04-20T08:15:14.817Z,55360.00
2023-04-20T08:16:14.875Z,31808.00
2023-04-20T08:17:14.768Z,30528.00
2023-04-20T08:18:15.047Z,27424.00
2023-04-20T08:20:14.730Z,26272.00
2023-04-20T08:21:14.717Z,22080.00
2023-04-20T08:22:14.734Z,17856.00
2023-04-20T08:23:14.714Z,37152.00
2023-04-20T08:24:14.691Z,25120.00
2023-04-20T08:25:14.674Z,17856.00
2023-04-20T08:26:14.680Z,13248.00
2023-04-20T08:27:14.656Z,11380.00
2023-04-20T08:28:24.250Z,10084.00
2023-04-20T08:29:15.637Z,12032.00
2023-04-20T08:30:14.819Z,12200.00
2023-04-20T08:31:14.734Z,10236.00
2023-04-20T08:32:14.612Z,8380.00
2023-04-20T08:33:14.652Z,8392.00
2023-04-20T08:34:14.573Z,8888.00
2023-04-20T08:35:14.578Z,9132.00
2023-04-20T08:36:14.552Z,9272.00
2023-04-20T08:37:14.561Z,8796.00
2023-04-20T08:38:18.075Z,8208.00
2023-04-20T08:39:15.515Z,7612.00
2023-04-20T08:40:14.701Z,7116.00
2023-04-20T08:41:14.496Z,6432.00
2023-04-20T08:42:14.514Z,6320.00
2023-04-20T08:43:14.476Z,6088.00
2023-04-20T08:44:14.552Z,5372.00
2023-04-20T08:45:14.460Z,4604.00
2023-04-20T08:46:14.494Z,3856.00
2023-04-20T08:47:15.532Z,3140.00
2023-04-20T08:48:14.423Z,2924.00
2023-04-20T08:49:14.413Z,2920.00
2023-04-20T08:50:14.402Z,2584.00
2023-04-20T08:51:14.392Z,2236.00
2023-04-20T08:52:14.930Z,1980.00
2023-04-20T08:53:14.363Z,2164.00
2023-04-20T08:54:14.415Z,2540.00
2023-04-20T08:55:14.348Z,2728.00
2023-04-20T08:56:14.345Z,2976.00
2023-04-20T08:57:14.373Z,3472.00
2023-04-20T08:58:14.304Z,3764.00
2023-04-20T08:59:14.317Z,3924.00
2023-04-20T09:00:14.291Z,3768.00
2023-04-20T09:01:17.695Z,3552.00
2023-04-20T09:02:15.416Z,3608.00
2023-04-20T09:03:15.019Z,3676.00
2023-04-20T09:04:14.454Z,3580.00
2023-04-20T09:05:14.274Z,3600.00
2023-04-20T09:06:14.229Z,3612.00
2023-04-20T09:07:14.229Z,3808.00
2023-04-20T09:08:14.199Z,3920.00
2023-04-20T09:09:14.183Z,4144.00
2023-04-20T09:10:14.187Z,4260.00
2023-04-20T09:11:14.161Z,4060.00
2023-04-20T09:12:14.163Z,3964.00
2023-04-20T09:13:14.139Z,4164.00
2023-04-20T09:14:14.122Z,4188.00
2023-04-20T09:15:14.118Z,4288.00
2023-04-20T09:16:14.150Z,4252.00
2023-04-20T09:17:14.121Z,4096.00
2023-04-20T09:18:14.082Z,3748.00
2023-04-20T09:19:14.118Z,3440.00
2023-04-20T09:20:14.060Z,3432.00
2023-04-20T09:21:14.068Z,3780.00
2023-04-20T09:22:14.034Z,4324.00
2023-04-20T09:23:14.076Z,4716.00
2023-04-20T09:24:14.055Z,5136.00
2023-04-20T09:25:14.006Z,5472.00
2023-04-20T09:26:14.007Z,5796.00
2023-04-20T09:27:14.001Z,6308.00
2023-04-20T09:28:13.994Z,7576.00
2023-04-20T09:29:13.957Z,9128.00
2023-04-20T09:30:13.983Z,10780.00
2023-04-20T09:31:15.084Z,12212.00
2023-04-20T09:32:14.037Z,13252.00
2023-04-20T09:33:13.930Z,13700.00
2023-04-20T09:34:13.970Z,13508.00
2023-04-20T09:35:14.029Z,13600.00
2023-04-20T09:36:13.888Z,13916.00
2023-04-20T09:37:13.871Z,14428.00
2023-04-20T09:38:13.859Z,14704.00
2023-04-20T09:39:13.872Z,14976.00
2023-04-20T09:40:13.924Z,15028.00
2023-04-20T09:41:13.829Z,15012.00
2023-04-20T09:42:13.837Z,15156.00
2023-04-20T09:43:15.325Z,15364.00
2023-04-20T09:44:13.805Z,14644.00
2023-04-20T09:45:13.782Z,16352.00
2023-04-20T09:46:13.867Z,18176.00
2023-04-20T09:47:13.787Z,17920.00
2023-04-20T09:48:13.744Z,18176.00
2023-04-20T09:49:13.757Z,19904.00
2023-04-20T09:50:24.734Z,24480.00
2023-04-20T09:51:14.819Z,23552.00
2023-04-20T09:52:13.704Z,20064.00
2023-04-20T09:53:13.711Z,18048.00
2023-04-20T09:54:13.739Z,19648.00
2023-04-20T09:55:13.677Z,24480.00
2023-04-20T09:56:13.659Z,29120.00
2023-04-20T09:57:13.665Z,21440.00
2023-04-20T09:58:13.686Z,21248.00
2023-04-20T09:59:13.633Z,22624.00
2023-04-20T10:00:13.616Z,24224.00
2023-04-20T10:01:13.703Z,28768.00
2023-04-20T10:02:13.726Z,26400.00
2023-04-20T10:03:13.778Z,28512.00
2023-04-20T10:04:13.765Z,24992.00
2023-04-20T10:05:13.558Z,22720.00
2023-04-20T10:06:13.576Z,23328.00
2023-04-20T10:07:13.552Z,21408.00
2023-04-20T10:08:13.596Z,34496.00
2023-04-20T10:09:13.527Z,28960.00
2023-04-20T10:10:13.509Z,34048.00
2023-04-20T10:11:13.514Z,64608.00
2023-04-20T10:12:13.485Z,48992.00
2023-04-20T10:13:13.487Z,48064.00
2023-04-20T10:14:13.478Z,41728.00
2023-04-20T10:15:13.449Z,40320.00
2023-04-20T10:16:13.495Z,87040.00
2023-04-20T10:17:13.527Z,60576.00
2023-04-20T10:18:13.476Z,37248.00
2023-04-20T10:19:13.422Z,33504.00
2023-04-20T10:20:13.391Z,33792.00
2023-04-20T10:21:13.383Z,66720.00
2023-04-20T10:22:13.380Z,51488.00
2023-04-20T10:23:13.397Z,58496.00
2023-04-20T10:24:13.389Z,52320.00
2023-04-20T10:25:13.350Z,38176.00
2023-04-20T10:26:13.326Z,91648.00
2023-04-20T10:27:13.323Z,97120.00
2023-04-20T10:28:13.311Z,96800.00
2023-04-20T10:29:13.297Z,79904.00
2023-04-20T10:30:14.428Z,102048.00
2023-04-20T10:31:13.551Z,101888.00
2023-04-20T10:32:13.276Z,100736.00
2023-04-20T10:33:13.478Z,61600.00
2023-04-20T10:34:13.260Z,46592.00
2023-04-20T10:35:13.252Z,40288.00
2023-04-20T10:36:13.222Z,45952.00
2023-04-20T10:37:13.241Z,54272.00
2023-04-20T10:38:13.199Z,52000.00
2023-04-20T10:39:13.238Z,94272.00
2023-04-20T10:40:13.173Z,83584.00
2023-04-20T10:41:13.185Z,65504.00
2023-04-20T10:42:13.648Z,62528.00
2023-04-20T10:43:13.149Z,74496.00
2023-04-20T10:44:13.143Z,101600.00
2023-04-20T10:45:13.141Z,80448.00
2023-04-20T10:46:13.153Z,86080.00
2023-04-20T10:47:13.104Z,93728.00
2023-04-20T10:48:13.100Z,97632.00
2023-04-20T10:49:13.081Z,98656.00
2023-04-20T10:50:13.133Z,99296.00
2023-04-20T10:51:13.072Z,99360.00
2023-04-20T10:52:13.059Z,98752.00
2023-04-20T10:53:21.156Z,97216.00
2023-04-20T10:54:13.024Z,100384.00
2023-04-20T10:55:13.078Z,90560.00
2023-04-20T10:56:13.024Z,100704.00
2023-04-20T10:57:12.996Z,96096.00
2023-04-20T10:58:13.001Z,91488.00
2023-04-20T10:59:12.972Z,78112.00
2023-04-20T11:00:12.974Z,77952.00
2023-04-20T11:01:13.008Z,28832.00
2023-04-20T11:02:13.022Z,20480.00
2023-04-20T11:03:13.072Z,24032.00
2023-04-20T11:04:12.916Z,24768.00
2023-04-20T11:05:13.659Z,28864.00
2023-04-20T11:06:12.921Z,26208.00
2023-04-20T11:07:12.889Z,27744.00
2023-04-20T11:08:12.875Z,16352.00
2023-04-20T11:09:12.868Z,21152.00
2023-04-20T11:10:12.868Z,28608.00
2023-04-20T11:11:12.897Z,16640.00
2023-04-20T11:12:12.837Z,16704.00
2023-04-20T11:13:12.827Z,17760.00
2023-04-20T11:14:12.830Z,14840.00
2023-04-20T11:15:12.817Z,15976.00
2023-04-20T11:16:12.846Z,16704.00
2023-04-20T11:17:13.580Z,19104.00
2023-04-20T11:18:12.796Z,21952.00
2023-04-20T11:19:12.756Z,21952.00
2023-04-20T11:20:12.774Z,18976.00
2023-04-20T11:21:12.736Z,17600.00
2023-04-20T11:22:12.728Z,17696.00
2023-04-20T11:23:12.730Z,20736.00
2023-04-20T11:24:12.719Z,24768.00
2023-04-20T11:25:12.855Z,98208.00
2023-04-20T11:26:12.682Z,30816.00
2023-04-20T11:27:12.711Z,21824.00
2023-04-20T11:28:12.660Z,16416.00
2023-04-20T11:29:12.659Z,16512.00
2023-04-20T11:30:12.667Z,17504.00
2023-04-20T11:31:12.672Z,17216.00
2023-04-20T11:32:12.791Z,18016.00
2023-04-20T11:33:12.891Z,18528.00
2023-04-20T11:34:12.592Z,29184.00
2023-04-20T11:35:12.602Z,75968.00
2023-04-20T11:36:12.588Z,34976.00
2023-04-20T11:37:12.560Z,32928.00
2023-04-20T11:38:12.549Z,52032.00
2023-04-20T11:39:12.586Z,27968.00
2023-04-20T11:40:12.532Z,20032.00
2023-04-20T11:41:12.513Z,24416.00
2023-04-20T11:42:12.512Z,55648.00
2023-04-20T11:43:12.575Z,106592.00
2023-04-20T11:44:12.501Z,33824.00
2023-04-20T11:45:12.486Z,24736.00
2023-04-20T11:46:12.523Z,23520.00
2023-04-20T11:47:12.454Z,24672.00
2023-04-20T11:48:12.460Z,23744.00
2023-04-20T11:49:12.430Z,26016.00
2023-04-20T11:50:12.414Z,32032.00
2023-04-20T11:51:12.402Z,48384.00
2023-04-20T11:52:12.404Z,19328.00
2023-04-20T11:53:12.644Z,19552.00
2023-04-20T11:54:12.384Z,20608.00
2023-04-20T11:55:12.377Z,14408.00
2023-04-20T11:56:12.365Z,12188.00
2023-04-20T11:57:12.350Z,12148.00
2023-04-20T11:58:12.324Z,13136.00
2023-04-20T11:59:12.705Z,14840.00
2023-04-20T12:00:12.337Z,17760.00
2023-04-20T12:01:12.294Z,24512.00
2023-04-20T12:02:12.362Z,12512.00
2023-04-20T12:03:12.335Z,10804.00
2023-04-20T12:04:12.582Z,11556.00
2023-04-20T12:05:12.345Z,13924.00
2023-04-20T12:06:12.237Z,17344.00
2023-04-20T12:07:12.292Z,15364.00
2023-04-20T12:08:12.213Z,24960.00
2023-04-20T12:09:12.204Z,44032.00
2023-04-20T12:10:12.190Z,76480.00
2023-04-20T12:11:12.182Z,21696.00
2023-04-20T12:12:12.191Z,18368.00
2023-04-20T12:13:12.182Z,22848.00
2023-04-20T12:14:12.162Z,44416.00
2023-04-20T12:15:12.205Z,68736.00
2023-04-20T12:16:12.194Z,33344.00
2023-04-20T12:17:12.133Z,19936.00
2023-04-20T12:18:12.230Z,16704.00
2023-04-20T12:19:12.105Z,17760.00
2023-04-20T12:20:12.234Z,22656.00
2023-04-20T12:21:12.078Z,62464.00
2023-04-20T12:22:12.081Z,20160.00